sensor_id;sensor_type;location;lat;lon;timestamp;P1;durP1;ratioP1;P2;durP2;ratioP2
11241;SDS011;5678;52.370;9.006;2022-11-20T00:01:05;1.17;;;1.17;;
11241;SDS011;5678;52.370;9.006;2022-11-20T00:03:33;1.73;;;1.73;;
11241;SDS011;5678;52.370;9.006;2022-11-20T00:06:02;1.20;;;1.20;;
11241;SDS011;5678;52.370;9.006;2022-11-20T00:08:30;1.45;;;1.45;;
11241;SDS011;5678;52.370;9.006;2022-11-20T00:11:01;1.25;;;1.25;;
11241;SDS011;5678;52.370;9.006;2022-11-20T00:13:30;1.30;;;1.30;;
11241;SDS011;5678;52.370;9.006;2022-11-20T00:15:58;1.67;;;1.67;;
11241;SDS011;5678;52.370;9.006;2022-11-20T00:18:28;1.30;;;1.30;;
11241;SDS011;5678;52.370;9.006;2022-11-20T00:21:00;1.10;;;1.10;;
11241;SDS011;5678;52.370;9.006;2022-11-20T00:23:28;1.40;;;1.40;;
11241;SDS011;5678;52.370;9.006;2022-11-20T00:26:00;1.40;;;1.40;;
11241;SDS011;5678;52.370;9.006;2022-11-20T00:28:29;1.23;;;1.23;;
11241;SDS011;5678;52.370;9.006;2022-11-20T00:31:00;1.30;;;1.30;;
11241;SDS011;5678;52.370;9.006;2022-11-20T00:33:31;1.20;;;1.20;;
11241;SDS011;5678;52.370;9.006;2022-11-20T00:36:00;1.20;;;1.20;;
11241;SDS011;5678;52.370;9.006;2022-11-20T00:38:28;1.45;;;1.45;;
11241;SDS011;5678;52.370;9.006;2022-11-20T00:40:57;1.40;;;1.40;;
11241;SDS011;5678;52.370;9.006;2022-11-20T00:43:25;1.20;;;1.20;;
11241;SDS011;5678;52.370;9.006;2022-11-20T00:45:57;1.42;;;1.42;;
11241;SDS011;5678;52.370;9.006;2022-11-20T00:48:25;1.70;;;1.70;;
11241;SDS011;5678;52.370;9.006;2022-11-20T00:50:55;1.13;;;1.13;;
11241;SDS011;5678;52.370;9.006;2022-11-20T00:53:23;1.20;;;1.20;;
11241;SDS011;5678;52.370;9.006;2022-11-20T00:55:52;2.00;;;2.00;;
11241;SDS011;5678;52.370;9.006;2022-11-20T00:58:21;1.45;;;1.45;;
11241;SDS011;5678;52.370;9.006;2022-11-20T01:00:49;1.33;;;1.33;;
11241;SDS011;5678;52.370;9.006;2022-11-20T01:03:17;1.42;;;1.42;;
11241;SDS011;5678;52.370;9.006;2022-11-20T01:05:52;1.33;;;1.33;;
11241;SDS011;5678;52.370;9.006;2022-11-20T01:08:21;1.58;;;1.58;;
11241;SDS011;5678;52.370;9.006;2022-11-20T01:10:49;1.25;;;1.25;;
11241;SDS011;5678;52.370;9.006;2022-11-20T01:13:17;4.47;;;4.35;;
11241;SDS011;5678;52.370;9.006;2022-11-20T01:16:02;1.42;;;1.42;;
11241;SDS011;5678;52.370;9.006;2022-11-20T01:18:31;1.35;;;1.35;;
11241;SDS011;5678;52.370;9.006;2022-11-20T01:21:02;1.60;;;1.60;;
11241;SDS011;5678;52.370;9.006;2022-11-20T01:23:33;1.52;;;1.52;;
11241;SDS011;5678;52.370;9.006;2022-11-20T01:26:02;1.13;;;1.13;;
11241;SDS011;5678;52.370;9.006;2022-11-20T01:28:31;1.10;;;1.10;;
11241;SDS011;5678;52.370;9.006;2022-11-20T01:30:59;1.20;;;1.20;;
11241;SDS011;5678;52.370;9.006;2022-11-20T01:33:27;1.35;;;1.35;;
11241;SDS011;5678;52.370;9.006;2022-11-20T01:36:02;1.42;;;1.42;;
11241;SDS011;5678;52.370;9.006;2022-11-20T01:38:33;1.20;;;1.20;;
11241;SDS011;5678;52.370;9.006;2022-11-20T01:41:01;1.20;;;1.20;;
11241;SDS011;5678;52.370;9.006;2022-11-20T01:43:29;1.40;;;1.40;;
11241;SDS011;5678;52.370;9.006;2022-11-20T01:45:58;1.20;;;1.20;;
11241;SDS011;5678;52.370;9.006;2022-11-20T01:48:29;1.30;;;1.30;;
11241;SDS011;5678;52.370;9.006;2022-11-20T01:51:02;1.42;;;1.42;;
11241;SDS011;5678;52.370;9.006;2022-11-20T01:53:33;1.20;;;1.20;;
11241;SDS011;5678;52.370;9.006;2022-11-20T01:56:05;1.40;;;1.40;;
11241;SDS011;5678;52.370;9.006;2022-11-20T01:58:37;1.40;;;1.40;;
11241;SDS011;5678;52.370;9.006;2022-11-20T02:01:08;1.40;;;1.40;;
11241;SDS011;5678;52.370;9.006;2022-11-20T02:03:37;1.30;;;1.30;;
11241;SDS011;5678;52.370;9.006;2022-11-20T02:06:06;1.50;;;1.50;;
11241;SDS011;5678;52.370;9.006;2022-11-20T02:08:40;1.50;;;1.50;;
11241;SDS011;5678;52.370;9.006;2022-11-20T02:11:08;1.42;;;1.42;;
11241;SDS011;5678;52.370;9.006;2022-11-20T02:13:36;1.50;;;1.50;;
11241;SDS011;5678;52.370;9.006;2022-11-20T02:16:14;1.48;;;1.48;;
11241;SDS011;5678;52.370;9.006;2022-11-20T02:18:44;1.20;;;1.20;;
11241;SDS011;5678;52.370;9.006;2022-11-20T02:21:15;1.40;;;1.40;;
11241;SDS011;5678;52.370;9.006;2022-11-20T02:24:02;1.63;;;1.63;;
11241;SDS011;5678;52.370;9.006;2022-11-20T02:26:43;1.40;;;1.40;;
11241;SDS011;5678;52.370;9.006;2022-11-20T02:29:16;1.23;;;1.23;;
11241;SDS011;5678;52.370;9.006;2022-11-20T02:31:50;1.58;;;1.58;;
11241;SDS011;5678;52.370;9.006;2022-11-20T02:34:19;1.17;;;1.17;;
11241;SDS011;5678;52.370;9.006;2022-11-20T02:36:47;1.20;;;1.20;;
11241;SDS011;5678;52.370;9.006;2022-11-20T02:39:19;1.42;;;1.42;;
11241;SDS011;5678;52.370;9.006;2022-11-20T02:41:48;1.60;;;1.60;;
11241;SDS011;5678;52.370;9.006;2022-11-20T02:44:16;1.23;;;1.23;;
11241;SDS011;5678;52.370;9.006;2022-11-20T02:46:44;1.20;;;1.20;;
11241;SDS011;5678;52.370;9.006;2022-11-20T02:49:12;1.20;;;1.20;;
11241;SDS011;5678;52.370;9.006;2022-11-20T02:51:39;1.30;;;1.30;;
11241;SDS011;5678;52.370;9.006;2022-11-20T02:54:07;1.20;;;1.20;;
11241;SDS011;5678;52.370;9.006;2022-11-20T02:56:38;1.45;;;1.45;;
11241;SDS011;5678;52.370;9.006;2022-11-20T02:59:06;1.20;;;1.20;;
11241;SDS011;5678;52.370;9.006;2022-11-20T03:01:34;1.27;;;1.27;;
11241;SDS011;5678;52.370;9.006;2022-11-20T03:04:02;1.30;;;1.30;;
11241;SDS011;5678;52.370;9.006;2022-11-20T03:06:31;1.30;;;1.30;;
11241;SDS011;5678;52.370;9.006;2022-11-20T03:08:59;1.30;;;1.30;;
11241;SDS011;5678;52.370;9.006;2022-11-20T03:11:27;1.40;;;1.40;;
11241;SDS011;5678;52.370;9.006;2022-11-20T03:13:57;1.63;;;1.63;;
11241;SDS011;5678;52.370;9.006;2022-11-20T03:16:25;1.35;;;1.35;;
11241;SDS011;5678;52.370;9.006;2022-11-20T03:18:53;1.48;;;1.48;;
11241;SDS011;5678;52.370;9.006;2022-11-20T03:21:21;1.48;;;1.48;;
11241;SDS011;5678;52.370;9.006;2022-11-20T03:23:49;1.45;;;1.45;;
11241;SDS011;5678;52.370;9.006;2022-11-20T03:26:17;1.40;;;1.40;;
11241;SDS011;5678;52.370;9.006;2022-11-20T03:28:47;1.45;;;1.45;;
11241;SDS011;5678;52.370;9.006;2022-11-20T03:31:18;1.40;;;1.40;;
11241;SDS011;5678;52.370;9.006;2022-11-20T03:33:47;1.40;;;1.40;;
11241;SDS011;5678;52.370;9.006;2022-11-20T03:36:16;1.30;;;1.30;;
11241;SDS011;5678;52.370;9.006;2022-11-20T03:38:45;1.75;;;1.75;;
11241;SDS011;5678;52.370;9.006;2022-11-20T03:41:14;1.20;;;1.20;;
11241;SDS011;5678;52.370;9.006;2022-11-20T03:43:46;1.35;;;1.35;;
11241;SDS011;5678;52.370;9.006;2022-11-20T03:46:15;1.25;;;1.25;;
11241;SDS011;5678;52.370;9.006;2022-11-20T03:48:45;1.42;;;1.42;;
11241;SDS011;5678;52.370;9.006;2022-11-20T03:51:17;1.15;;;1.15;;
11241;SDS011;5678;52.370;9.006;2022-11-20T03:53:47;1.30;;;1.30;;
11241;SDS011;5678;52.370;9.006;2022-11-20T03:56:16;1.45;;;1.45;;
11241;SDS011;5678;52.370;9.006;2022-11-20T03:58:45;1.42;;;1.42;;
11241;SDS011;5678;52.370;9.006;2022-11-20T04:01:14;1.40;;;1.40;;
11241;SDS011;5678;52.370;9.006;2022-11-20T04:03:45;1.30;;;1.30;;
11241;SDS011;5678;52.370;9.006;2022-11-20T04:06:14;1.45;;;1.45;;
11241;SDS011;5678;52.370;9.006;2022-11-20T04:08:43;1.23;;;1.23;;
11241;SDS011;5678;52.370;9.006;2022-11-20T04:11:19;1.40;;;1.40;;
11241;SDS011;5678;52.370;9.006;2022-11-20T04:13:48;1.35;;;1.35;;
11241;SDS011;5678;52.370;9.006;2022-11-20T04:16:18;1.35;;;1.35;;
11241;SDS011;5678;52.370;9.006;2022-11-20T04:18:50;1.77;;;1.77;;
11241;SDS011;5678;52.370;9.006;2022-11-20T04:21:19;1.55;;;1.55;;
11241;SDS011;5678;52.370;9.006;2022-11-20T04:23:47;1.38;;;1.38;;
11241;SDS011;5678;52.370;9.006;2022-11-20T04:26:16;1.55;;;1.55;;
11241;SDS011;5678;52.370;9.006;2022-11-20T04:28:44;1.50;;;1.50;;
11241;SDS011;5678;52.370;9.006;2022-11-20T04:31:13;1.50;;;1.50;;
11241;SDS011;5678;52.370;9.006;2022-11-20T04:33:42;1.43;;;1.43;;
11241;SDS011;5678;52.370;9.006;2022-11-20T04:36:13;1.20;;;1.20;;
11241;SDS011;5678;52.370;9.006;2022-11-20T04:38:42;1.50;;;1.50;;
11241;SDS011;5678;52.370;9.006;2022-11-20T04:41:17;1.63;;;1.63;;
11241;SDS011;5678;52.370;9.006;2022-11-20T04:43:46;1.50;;;1.50;;
11241;SDS011;5678;52.370;9.006;2022-11-20T04:46:15;1.50;;;1.50;;
11241;SDS011;5678;52.370;9.006;2022-11-20T04:48:43;1.20;;;1.20;;
11241;SDS011;5678;52.370;9.006;2022-11-20T04:51:13;1.30;;;1.30;;
11241;SDS011;5678;52.370;9.006;2022-11-20T04:53:41;1.60;;;1.60;;
11241;SDS011;5678;52.370;9.006;2022-11-20T04:56:09;1.00;;;1.00;;
11241;SDS011;5678;52.370;9.006;2022-11-20T04:58:39;1.10;;;1.10;;
11241;SDS011;5678;52.370;9.006;2022-11-20T05:01:09;1.50;;;1.50;;
11241;SDS011;5678;52.370;9.006;2022-11-20T05:03:39;1.20;;;1.20;;
11241;SDS011;5678;52.370;9.006;2022-11-20T05:06:08;1.23;;;1.23;;
11241;SDS011;5678;52.370;9.006;2022-11-20T05:08:39;1.20;;;1.20;;
11241;SDS011;5678;52.370;9.006;2022-11-20T05:11:08;1.10;;;1.10;;
11241;SDS011;5678;52.370;9.006;2022-11-20T05:13:37;1.20;;;1.20;;
11241;SDS011;5678;52.370;9.006;2022-11-20T05:16:06;1.30;;;1.30;;
11241;SDS011;5678;52.370;9.006;2022-11-20T05:18:36;1.40;;;1.40;;
11241;SDS011;5678;52.370;9.006;2022-11-20T05:21:05;1.37;;;1.37;;
11241;SDS011;5678;52.370;9.006;2022-11-20T05:23:33;1.50;;;1.50;;
11241;SDS011;5678;52.370;9.006;2022-11-20T05:26:03;1.10;;;1.10;;
11241;SDS011;5678;52.370;9.006;2022-11-20T05:28:32;1.37;;;1.37;;
11241;SDS011;5678;52.370;9.006;2022-11-20T05:31:04;1.20;;;1.20;;
11241;SDS011;5678;52.370;9.006;2022-11-20T05:33:33;1.23;;;1.23;;
11241;SDS011;5678;52.370;9.006;2022-11-20T05:36:01;1.20;;;1.20;;
11241;SDS011;5678;52.370;9.006;2022-11-20T05:38:30;1.40;;;1.40;;
11241;SDS011;5678;52.370;9.006;2022-11-20T05:41:06;1.23;;;1.23;;
11241;SDS011;5678;52.370;9.006;2022-11-20T05:43:35;1.47;;;1.47;;
11241;SDS011;5678;52.370;9.006;2022-11-20T05:46:05;1.23;;;1.23;;
11241;SDS011;5678;52.370;9.006;2022-11-20T05:48:34;0.97;;;0.97;;
11241;SDS011;5678;52.370;9.006;2022-11-20T05:51:03;2.53;;;2.33;;
11241;SDS011;5678;52.370;9.006;2022-11-20T05:53:33;1.30;;;1.30;;
11241;SDS011;5678;52.370;9.006;2022-11-20T05:56:02;1.20;;;1.20;;
11241;SDS011;5678;52.370;9.006;2022-11-20T05:58:33;1.50;;;1.50;;
11241;SDS011;5678;52.370;9.006;2022-11-20T06:01:05;1.40;;;1.40;;
11241;SDS011;5678;52.370;9.006;2022-11-20T06:03:34;1.20;;;1.20;;
11241;SDS011;5678;52.370;9.006;2022-11-20T06:06:02;1.20;;;1.20;;
11241;SDS011;5678;52.370;9.006;2022-11-20T06:08:30;1.80;;;1.80;;
11241;SDS011;5678;52.370;9.006;2022-11-20T06:11:02;1.40;;;1.40;;
11241;SDS011;5678;52.370;9.006;2022-11-20T06:13:30;2.97;;;2.87;;
11241;SDS011;5678;52.370;9.006;2022-11-20T06:16:07;1.10;;;1.10;;
11241;SDS011;5678;52.370;9.006;2022-11-20T06:18:35;1.00;;;1.00;;
11241;SDS011;5678;52.370;9.006;2022-11-20T06:21:03;0.90;;;0.90;;
11241;SDS011;5678;52.370;9.006;2022-11-20T06:23:33;0.90;;;0.90;;
11241;SDS011;5678;52.370;9.006;2022-11-20T06:26:02;1.10;;;1.10;;
11241;SDS011;5678;52.370;9.006;2022-11-20T06:28:32;1.20;;;1.20;;
11241;SDS011;5678;52.370;9.006;2022-11-20T06:31:01;0.83;;;0.83;;
11241;SDS011;5678;52.370;9.006;2022-11-20T06:33:29;1.20;;;1.20;;
11241;SDS011;5678;52.370;9.006;2022-11-20T06:35:57;1.20;;;1.20;;
11241;SDS011;5678;52.370;9.006;2022-11-20T06:38:32;0.90;;;0.90;;
11241;SDS011;5678;52.370;9.006;2022-11-20T06:41:00;1.17;;;1.17;;
11241;SDS011;5678;52.370;9.006;2022-11-20T06:43:28;1.07;;;1.07;;
11241;SDS011;5678;52.370;9.006;2022-11-20T06:45:58;1.20;;;1.20;;
11241;SDS011;5678;52.370;9.006;2022-11-20T06:48:27;1.20;;;1.20;;
11241;SDS011;5678;52.370;9.006;2022-11-20T06:50:55;0.90;;;0.90;;
11241;SDS011;5678;52.370;9.006;2022-11-20T06:53:24;1.10;;;1.10;;
11241;SDS011;5678;52.370;9.006;2022-11-20T06:55:52;1.40;;;1.40;;
11241;SDS011;5678;52.370;9.006;2022-11-20T06:58:25;1.17;;;1.17;;
11241;SDS011;5678;52.370;9.006;2022-11-20T07:00:58;1.00;;;1.00;;
11241;SDS011;5678;52.370;9.006;2022-11-20T07:03:27;1.50;;;1.50;;
11241;SDS011;5678;52.370;9.006;2022-11-20T07:05:55;1.27;;;1.27;;
11241;SDS011;5678;52.370;9.006;2022-11-20T07:08:23;1.30;;;1.30;;
11241;SDS011;5678;52.370;9.006;2022-11-20T07:10:52;1.20;;;1.20;;
11241;SDS011;5678;52.370;9.006;2022-11-20T07:13:20;1.30;;;1.30;;
11241;SDS011;5678;52.370;9.006;2022-11-20T07:15:48;0.90;;;0.90;;
11241;SDS011;5678;52.370;9.006;2022-11-20T07:18:17;1.10;;;1.10;;
11241;SDS011;5678;52.370;9.006;2022-11-20T07:20:45;1.20;;;1.20;;
11241;SDS011;5678;52.370;9.006;2022-11-20T07:23:13;1.20;;;1.20;;
11241;SDS011;5678;52.370;9.006;2022-11-20T07:25:41;1.20;;;1.20;;
11241;SDS011;5678;52.370;9.006;2022-11-20T07:28:09;1.50;;;1.50;;
11241;SDS011;5678;52.370;9.006;2022-11-20T07:30:37;0.80;;;0.80;;
11241;SDS011;5678;52.370;9.006;2022-11-20T07:33:05;1.10;;;1.10;;
11241;SDS011;5678;52.370;9.006;2022-11-20T07:35:34;1.30;;;1.30;;
11241;SDS011;5678;52.370;9.006;2022-11-20T07:38:02;0.90;;;0.90;;
11241;SDS011;5678;52.370;9.006;2022-11-20T07:40:30;1.13;;;1.13;;
11241;SDS011;5678;52.370;9.006;2022-11-20T07:42:58;1.30;;;1.30;;
11241;SDS011;5678;52.370;9.006;2022-11-20T07:45:26;1.10;;;1.10;;
11241;SDS011;5678;52.370;9.006;2022-11-20T07:47:54;1.00;;;1.00;;
11241;SDS011;5678;52.370;9.006;2022-11-20T07:50:22;1.00;;;1.00;;
11241;SDS011;5678;52.370;9.006;2022-11-20T07:52:52;0.70;;;0.70;;
11241;SDS011;5678;52.370;9.006;2022-11-20T07:55:26;0.73;;;0.73;;
11241;SDS011;5678;52.370;9.006;2022-11-20T07:57:55;0.70;;;0.70;;
11241;SDS011;5678;52.370;9.006;2022-11-20T08:00:23;1.00;;;1.00;;
11241;SDS011;5678;52.370;9.006;2022-11-20T08:02:51;1.00;;;1.00;;
11241;SDS011;5678;52.370;9.006;2022-11-20T08:05:20;0.90;;;0.90;;
11241;SDS011;5678;52.370;9.006;2022-11-20T08:07:48;0.70;;;0.70;;
11241;SDS011;5678;52.370;9.006;2022-11-20T08:10:17;1.10;;;1.10;;
11241;SDS011;5678;52.370;9.006;2022-11-20T08:12:46;1.13;;;1.13;;
11241;SDS011;5678;52.370;9.006;2022-11-20T08:15:32;0.70;;;0.70;;
11241;SDS011;5678;52.370;9.006;2022-11-20T08:18:01;0.60;;;0.60;;
11241;SDS011;5678;52.370;9.006;2022-11-20T08:20:50;1.43;;;1.43;;
11241;SDS011;5678;52.370;9.006;2022-11-20T08:23:18;0.80;;;0.80;;
11241;SDS011;5678;52.370;9.006;2022-11-20T08:25:49;1.00;;;1.00;;
11241;SDS011;5678;52.370;9.006;2022-11-20T08:28:18;0.73;;;0.73;;
11241;SDS011;5678;52.370;9.006;2022-11-20T08:30:48;1.10;;;1.10;;
11241;SDS011;5678;52.370;9.006;2022-11-20T08:33:17;0.70;;;0.70;;
11241;SDS011;5678;52.370;9.006;2022-11-20T08:35:45;0.90;;;0.90;;
11241;SDS011;5678;52.370;9.006;2022-11-20T08:38:13;0.67;;;0.67;;
11241;SDS011;5678;52.370;9.006;2022-11-20T08:40:41;0.80;;;0.80;;
11241;SDS011;5678;52.370;9.006;2022-11-20T08:43:30;0.50;;;0.50;;
11241;SDS011;5678;52.370;9.006;2022-11-20T08:45:58;0.60;;;0.60;;
11241;SDS011;5678;52.370;9.006;2022-11-20T08:48:26;0.60;;;0.60;;
11241;SDS011;5678;52.370;9.006;2022-11-20T08:50:57;0.50;;;0.50;;
11241;SDS011;5678;52.370;9.006;2022-11-20T08:53:25;0.80;;;0.80;;
11241;SDS011;5678;52.370;9.006;2022-11-20T08:55:54;0.80;;;0.80;;
11241;SDS011;5678;52.370;9.006;2022-11-20T08:58:23;0.93;;;0.93;;
11241;SDS011;5678;52.370;9.006;2022-11-20T09:00:53;0.70;;;0.70;;
11241;SDS011;5678;52.370;9.006;2022-11-20T09:03:21;0.60;;;0.60;;
11241;SDS011;5678;52.370;9.006;2022-11-20T09:05:57;0.70;;;0.70;;
11241;SDS011;5678;52.370;9.006;2022-11-20T09:08:26;0.50;;;0.50;;
11241;SDS011;5678;52.370;9.006;2022-11-20T09:10:54;0.47;;;0.47;;
11241;SDS011;5678;52.370;9.006;2022-11-20T09:13:24;0.60;;;0.60;;
11241;SDS011;5678;52.370;9.006;2022-11-20T09:15:54;0.40;;;0.40;;
11241;SDS011;5678;52.370;9.006;2022-11-20T09:18:23;0.63;;;0.63;;
11241;SDS011;5678;52.370;9.006;2022-11-20T09:20:55;0.60;;;0.60;;
11241;SDS011;5678;52.370;9.006;2022-11-20T09:23:24;0.80;;;0.80;;
11241;SDS011;5678;52.370;9.006;2022-11-20T09:25:52;0.50;;;0.50;;
11241;SDS011;5678;52.370;9.006;2022-11-20T09:28:25;0.60;;;0.60;;
11241;SDS011;5678;52.370;9.006;2022-11-20T09:30:55;0.60;;;0.60;;
11241;SDS011;5678;52.370;9.006;2022-11-20T09:33:23;0.50;;;0.50;;
11241;SDS011;5678;52.370;9.006;2022-11-20T09:35:51;0.73;;;0.73;;
11241;SDS011;5678;52.370;9.006;2022-11-20T09:38:18;0.60;;;0.60;;
11241;SDS011;5678;52.370;9.006;2022-11-20T09:40:48;0.53;;;0.53;;
11241;SDS011;5678;52.370;9.006;2022-11-20T09:43:22;0.73;;;0.73;;
11241;SDS011;5678;52.370;9.006;2022-11-20T09:46:04;0.50;;;0.50;;
11241;SDS011;5678;52.370;9.006;2022-11-20T09:48:40;0.60;;;0.60;;
11241;SDS011;5678;52.370;9.006;2022-11-20T09:51:19;0.80;;;0.80;;
11241;SDS011;5678;52.370;9.006;2022-11-20T09:53:58;0.50;;;0.50;;
11241;SDS011;5678;52.370;9.006;2022-11-20T09:56:36;0.70;;;0.70;;
11241;SDS011;5678;52.370;9.006;2022-11-20T09:59:08;0.60;;;0.60;;
11241;SDS011;5678;52.370;9.006;2022-11-20T10:01:49;0.57;;;0.57;;
11241;SDS011;5678;52.370;9.006;2022-11-20T10:04:18;0.70;;;0.70;;
11241;SDS011;5678;52.370;9.006;2022-11-20T10:06:49;0.50;;;0.50;;
11241;SDS011;5678;52.370;9.006;2022-11-20T10:09:43;0.60;;;0.60;;
11241;SDS011;5678;52.370;9.006;2022-11-20T10:12:19;0.57;;;0.57;;
11241;SDS011;5678;52.370;9.006;2022-11-20T10:15:04;0.50;;;0.50;;
11241;SDS011;5678;52.370;9.006;2022-11-20T10:17:58;0.70;;;0.70;;
11241;SDS011;5678;52.370;9.006;2022-11-20T10:20:35;0.60;;;0.60;;
11241;SDS011;5678;52.370;9.006;2022-11-20T10:23:17;0.50;;;0.50;;
11241;SDS011;5678;52.370;9.006;2022-11-20T10:25:59;0.50;;;0.50;;
11241;SDS011;5678;52.370;9.006;2022-11-20T10:28:33;0.60;;;0.60;;
11241;SDS011;5678;52.370;9.006;2022-11-20T10:31:25;0.50;;;0.50;;
11241;SDS011;5678;52.370;9.006;2022-11-20T10:34:00;0.57;;;0.57;;
11241;SDS011;5678;52.370;9.006;2022-11-20T10:36:38;0.60;;;0.60;;
11241;SDS011;5678;52.370;9.006;2022-11-20T10:39:14;0.60;;;0.60;;
11241;SDS011;5678;52.370;9.006;2022-11-20T10:41:50;0.83;;;0.83;;
11241;SDS011;5678;52.370;9.006;2022-11-20T10:44:22;0.50;;;0.50;;
11241;SDS011;5678;52.370;9.006;2022-11-20T10:47:12;0.80;;;0.80;;
11241;SDS011;5678;52.370;9.006;2022-11-20T10:49:43;0.50;;;0.50;;
11241;SDS011;5678;52.370;9.006;2022-11-20T10:52:16;0.50;;;0.50;;
11241;SDS011;5678;52.370;9.006;2022-11-20T10:54:55;0.50;;;0.50;;
11241;SDS011;5678;52.370;9.006;2022-11-20T10:57:35;0.50;;;0.50;;
11241;SDS011;5678;52.370;9.006;2022-11-20T11:00:16;0.50;;;0.50;;
11241;SDS011;5678;52.370;9.006;2022-11-20T11:02:46;0.53;;;0.53;;
11241;SDS011;5678;52.370;9.006;2022-11-20T11:05:33;0.40;;;0.40;;
11241;SDS011;5678;52.370;9.006;2022-11-20T11:08:05;0.53;;;0.53;;
11241;SDS011;5678;52.370;9.006;2022-11-20T11:10:42;0.50;;;0.50;;
11241;SDS011;5678;52.370;9.006;2022-11-20T11:13:20;0.53;;;0.53;;
11241;SDS011;5678;52.370;9.006;2022-11-20T11:15:49;0.30;;;0.30;;
11241;SDS011;5678;52.370;9.006;2022-11-20T11:18:23;0.60;;;0.60;;
11241;SDS011;5678;52.370;9.006;2022-11-20T11:20:54;0.60;;;0.60;;
11241;SDS011;5678;52.370;9.006;2022-11-20T11:23:28;0.47;;;0.47;;
11241;SDS011;5678;52.370;9.006;2022-11-20T11:25:59;0.60;;;0.60;;
11241;SDS011;5678;52.370;9.006;2022-11-20T11:28:28;0.40;;;0.40;;
11241;SDS011;5678;52.370;9.006;2022-11-20T11:30:56;0.40;;;0.40;;
11241;SDS011;5678;52.370;9.006;2022-11-20T11:33:24;0.43;;;0.43;;
11241;SDS011;5678;52.370;9.006;2022-11-20T11:35:56;0.50;;;0.50;;
11241;SDS011;5678;52.370;9.006;2022-11-20T11:38:28;0.50;;;0.50;;
11241;SDS011;5678;52.370;9.006;2022-11-20T11:40:58;0.50;;;0.50;;
11241;SDS011;5678;52.370;9.006;2022-11-20T11:43:28;0.40;;;0.40;;
11241;SDS011;5678;52.370;9.006;2022-11-20T11:46:22;0.40;;;0.40;;
11241;SDS011;5678;52.370;9.006;2022-11-20T11:48:57;0.40;;;0.40;;
11241;SDS011;5678;52.370;9.006;2022-11-20T11:51:28;0.70;;;0.70;;
11241;SDS011;5678;52.370;9.006;2022-11-20T11:54:01;0.50;;;0.50;;
11241;SDS011;5678;52.370;9.006;2022-11-20T11:56:40;0.40;;;0.40;;
11241;SDS011;5678;52.370;9.006;2022-11-20T11:59:09;0.40;;;0.40;;
11241;SDS011;5678;52.370;9.006;2022-11-20T12:01:42;0.40;;;0.40;;
11241;SDS011;5678;52.370;9.006;2022-11-20T12:04:24;0.40;;;0.40;;
11241;SDS011;5678;52.370;9.006;2022-11-20T12:07:10;0.40;;;0.40;;
11241;SDS011;5678;52.370;9.006;2022-11-20T12:10:14;0.40;;;0.40;;
11241;SDS011;5678;52.370;9.006;2022-11-20T12:12:48;0.40;;;0.40;;
11241;SDS011;5678;52.370;9.006;2022-11-20T12:15:26;0.50;;;0.50;;
11241;SDS011;5678;52.370;9.006;2022-11-20T12:17:57;0.47;;;0.47;;
11241;SDS011;5678;52.370;9.006;2022-11-20T12:20:26;0.60;;;0.60;;
11241;SDS011;5678;52.370;9.006;2022-11-20T12:23:02;0.40;;;0.40;;
11241;SDS011;5678;52.370;9.006;2022-11-20T12:25:37;0.40;;;0.40;;
11241;SDS011;5678;52.370;9.006;2022-11-20T12:34:37;0.47;;;0.47;;
11241;SDS011;5678;52.370;9.006;2022-11-20T12:37:27;0.50;;;0.50;;
11241;SDS011;5678;52.370;9.006;2022-11-20T12:40:07;0.40;;;0.40;;
11241;SDS011;5678;52.370;9.006;2022-11-20T12:42:54;0.40;;;0.40;;
11241;SDS011;5678;52.370;9.006;2022-11-20T12:45:50;0.30;;;0.30;;
11241;SDS011;5678;52.370;9.006;2022-11-20T12:54:31;0.33;;;0.33;;
11241;SDS011;5678;52.370;9.006;2022-11-20T12:57:24;0.50;;;0.50;;
11241;SDS011;5678;52.370;9.006;2022-11-20T13:02:58;0.60;;;0.60;;
11241;SDS011;5678;52.370;9.006;2022-11-20T13:05:51;0.40;;;0.40;;
11241;SDS011;5678;52.370;9.006;2022-11-20T13:08:27;0.43;;;0.43;;
11241;SDS011;5678;52.370;9.006;2022-11-20T13:10:58;0.50;;;0.50;;
11241;SDS011;5678;52.370;9.006;2022-11-20T13:13:35;0.50;;;0.50;;
11241;SDS011;5678;52.370;9.006;2022-11-20T13:16:14;0.40;;;0.40;;
11241;SDS011;5678;52.370;9.006;2022-11-20T13:18:47;0.40;;;0.40;;
11241;SDS011;5678;52.370;9.006;2022-11-20T13:21:15;0.40;;;0.40;;
11241;SDS011;5678;52.370;9.006;2022-11-20T13:23:47;0.50;;;0.50;;
11241;SDS011;5678;52.370;9.006;2022-11-20T13:26:16;0.40;;;0.40;;
11241;SDS011;5678;52.370;9.006;2022-11-20T13:28:59;0.40;;;0.40;;
11241;SDS011;5678;52.370;9.006;2022-11-20T13:31:30;1.13;;;1.13;;
11241;SDS011;5678;52.370;9.006;2022-11-20T13:34:02;0.40;;;0.40;;
11241;SDS011;5678;52.370;9.006;2022-11-20T13:36:32;0.30;;;0.30;;
11241;SDS011;5678;52.370;9.006;2022-11-20T13:39:02;0.30;;;0.30;;
11241;SDS011;5678;52.370;9.006;2022-11-20T13:41:31;0.40;;;0.40;;
11241;SDS011;5678;52.370;9.006;2022-11-20T13:44:09;0.30;;;0.30;;
11241;SDS011;5678;52.370;9.006;2022-11-20T13:46:41;0.33;;;0.33;;
11241;SDS011;5678;52.370;9.006;2022-11-20T13:49:16;0.40;;;0.40;;
11241;SDS011;5678;52.370;9.006;2022-11-20T13:51:55;0.40;;;0.40;;
11241;SDS011;5678;52.370;9.006;2022-11-20T13:54:52;0.30;;;0.30;;
11241;SDS011;5678;52.370;9.006;2022-11-20T14:00:28;0.50;;;0.50;;
11241;SDS011;5678;52.370;9.006;2022-11-20T14:03:01;0.30;;;0.30;;
11241;SDS011;5678;52.370;9.006;2022-11-20T14:05:39;0.40;;;0.40;;
11241;SDS011;5678;52.370;9.006;2022-11-20T14:08:17;0.30;;;0.30;;
11241;SDS011;5678;52.370;9.006;2022-11-20T14:11:02;0.50;;;0.50;;
11241;SDS011;5678;52.370;9.006;2022-11-20T14:13:31;0.47;;;0.47;;
11241;SDS011;5678;52.370;9.006;2022-11-20T14:16:01;0.30;;;0.30;;
11241;SDS011;5678;52.370;9.006;2022-11-20T14:18:29;0.43;;;0.43;;
11241;SDS011;5678;52.370;9.006;2022-11-20T14:20:59;0.40;;;0.40;;
11241;SDS011;5678;52.370;9.006;2022-11-20T14:23:28;0.40;;;0.40;;
11241;SDS011;5678;52.370;9.006;2022-11-20T14:25:57;0.50;;;0.50;;
11241;SDS011;5678;52.370;9.006;2022-11-20T14:28:26;0.40;;;0.40;;
11241;SDS011;5678;52.370;9.006;2022-11-20T14:30:56;0.40;;;0.40;;
11241;SDS011;5678;52.370;9.006;2022-11-20T14:33:26;0.40;;;0.40;;
11241;SDS011;5678;52.370;9.006;2022-11-20T14:35:55;0.40;;;0.40;;
11241;SDS011;5678;52.370;9.006;2022-11-20T14:38:26;0.50;;;0.50;;
11241;SDS011;5678;52.370;9.006;2022-11-20T14:41:05;0.50;;;0.50;;
11241;SDS011;5678;52.370;9.006;2022-11-20T14:43:34;0.40;;;0.40;;
11241;SDS011;5678;52.370;9.006;2022-11-20T14:46:04;0.33;;;0.33;;
11241;SDS011;5678;52.370;9.006;2022-11-20T14:48:37;0.40;;;0.40;;
11241;SDS011;5678;52.370;9.006;2022-11-20T14:51:08;0.40;;;0.40;;
11241;SDS011;5678;52.370;9.006;2022-11-20T14:53:37;0.47;;;0.47;;
11241;SDS011;5678;52.370;9.006;2022-11-20T14:56:05;0.33;;;0.33;;
11241;SDS011;5678;52.370;9.006;2022-11-20T14:58:35;0.40;;;0.40;;
11241;SDS011;5678;52.370;9.006;2022-11-20T15:01:04;0.80;;;0.80;;
11241;SDS011;5678;52.370;9.006;2022-11-20T15:03:34;0.40;;;0.40;;
11241;SDS011;5678;52.370;9.006;2022-11-20T15:06:05;0.40;;;0.40;;
11241;SDS011;5678;52.370;9.006;2022-11-20T15:08:34;0.53;;;0.53;;
11241;SDS011;5678;52.370;9.006;2022-11-20T15:11:03;0.40;;;0.40;;
11241;SDS011;5678;52.370;9.006;2022-11-20T15:13:43;0.50;;;0.50;;
11241;SDS011;5678;52.370;9.006;2022-11-20T15:16:13;0.40;;;0.40;;
11241;SDS011;5678;52.370;9.006;2022-11-20T15:18:45;0.60;;;0.60;;
11241;SDS011;5678;52.370;9.006;2022-11-20T15:21:16;0.40;;;0.40;;
11241;SDS011;5678;52.370;9.006;2022-11-20T15:23:45;0.50;;;0.50;;
11241;SDS011;5678;52.370;9.006;2022-11-20T15:26:17;0.50;;;0.50;;
11241;SDS011;5678;52.370;9.006;2022-11-20T15:28:49;0.60;;;0.60;;
11241;SDS011;5678;52.370;9.006;2022-11-20T15:31:18;0.40;;;0.40;;
11241;SDS011;5678;52.370;9.006;2022-11-20T15:33:47;0.50;;;0.50;;
11241;SDS011;5678;52.370;9.006;2022-11-20T15:36:17;0.40;;;0.40;;
11241;SDS011;5678;52.370;9.006;2022-11-20T15:38:46;0.50;;;0.50;;
11241;SDS011;5678;52.370;9.006;2022-11-20T15:41:14;0.50;;;0.50;;
11241;SDS011;5678;52.370;9.006;2022-11-20T15:43:42;0.40;;;0.40;;
11241;SDS011;5678;52.370;9.006;2022-11-20T15:46:11;0.40;;;0.40;;